createdAt,value
2019-02-14T00:00:32.443Z,13.10
2019-02-14T00:03:01.924Z,12.33
2019-02-14T00:05:31.658Z,11.70
2019-02-14T00:08:01.133Z,11.80
2019-02-14T00:10:30.879Z,12.30
2019-02-14T00:13:00.351Z,12.60
2019-02-14T00:15:29.818Z,13.07
2019-02-14T00:17:59.309Z,11.67
2019-02-14T00:20:28.774Z,11.97
2019-02-14T00:22:58.267Z,12.03
2019-02-14T00:25:27.735Z,12.57
2019-02-14T00:27:57.196Z,11.30
2019-02-14T00:30:26.664Z,11.83
2019-02-14T00:32:56.133Z,12.27
2019-02-14T00:35:25.620Z,13.23
2019-02-14T00:37:55.261Z,12.90
2019-02-14T00:40:24.971Z,13.43
2019-02-14T00:42:54.769Z,11.97
2019-02-14T00:45:24.223Z,13.10
2019-02-14T00:47:53.691Z,12.07
2019-02-14T00:50:23.597Z,11.57
2019-02-14T00:52:53.066Z,11.90
2019-02-14T00:55:22.804Z,12.77
2019-02-14T00:57:52.333Z,12.03
2019-02-14T01:00:21.819Z,11.27
2019-02-14T01:02:51.661Z,11.40
2019-02-14T01:05:21.228Z,11.03
2019-02-14T01:07:50.968Z,11.33
2019-02-14T01:10:20.455Z,11.50
2019-02-14T01:12:49.948Z,10.90
2019-02-14T01:15:21.115Z,11.93
2019-02-14T01:17:50.944Z,10.87
2019-02-14T01:20:20.403Z,10.57
2019-02-14T01:22:49.947Z,11.37
2019-02-14T01:25:19.639Z,10.83
2019-02-14T01:27:49.110Z,10.80
2019-02-14T01:30:18.736Z,10.60
2019-02-14T01:32:48.276Z,11.60
2019-02-14T01:35:18.076Z,11.63
2019-02-14T01:37:48.247Z,11.03
2019-02-14T01:40:17.885Z,10.73
2019-02-14T01:42:47.387Z,12.07
2019-02-14T01:45:16.851Z,10.37
2019-02-14T01:47:46.629Z,10.33
2019-02-14T01:50:16.350Z,10.80
2019-02-14T01:52:46.073Z,10.40
2019-02-14T01:55:15.524Z,10.70
2019-02-14T01:57:45.004Z,10.60
2019-02-14T02:00:16.005Z,10.03
2019-02-14T02:02:45.470Z,10.50
2019-02-14T02:05:15.316Z,10.90
2019-02-14T02:07:45.053Z,10.07
2019-02-14T02:10:14.942Z,10.40
2019-02-14T02:12:44.663Z,10.43
2019-02-14T02:15:14.780Z,10.97
2019-02-14T02:17:44.409Z,9.30
2019-02-14T02:20:14.383Z,9.97
2019-02-14T02:22:43.939Z,10.93
2019-02-14T02:25:13.584Z,10.23
2019-02-14T02:27:43.218Z,10.90
2019-02-14T02:30:14.879Z,10.27
2019-02-14T02:32:44.508Z,10.50
2019-02-14T02:35:13.983Z,10.80
2019-02-14T02:37:43.918Z,10.17
2019-02-14T02:40:13.944Z,10.90
2019-02-14T02:42:43.466Z,10.30
2019-02-14T02:45:13.497Z,9.13
2019-02-14T02:47:43.131Z,10.10
2019-02-14T02:50:13.143Z,9.67
2019-02-14T02:52:42.613Z,10.07
2019-02-14T02:55:12.086Z,10.37
2019-02-14T02:57:41.551Z,9.93
2019-02-14T03:00:16.453Z,10.03
2019-02-14T03:02:45.929Z,9.07
2019-02-14T03:05:15.970Z,9.17
2019-02-14T03:07:45.425Z,8.93
2019-02-14T03:10:15.005Z,8.57
2019-02-14T03:12:44.538Z,8.93
2019-02-14T03:15:15.057Z,9.10
2019-02-14T03:17:44.536Z,9.50
2019-02-14T03:20:14.142Z,8.60
2019-02-14T03:22:43.618Z,8.70
2019-02-14T03:25:15.522Z,9.43
2019-02-14T03:27:44.976Z,9.10
2019-02-14T03:30:15.986Z,8.83
2019-02-14T03:32:45.746Z,9.20
2019-02-14T03:35:15.240Z,9.43
2019-02-14T03:37:44.717Z,8.70
2019-02-14T03:40:15.191Z,8.80
2019-02-14T03:42:44.686Z,9.30
2019-02-14T03:45:20.662Z,9.00
2019-02-14T03:47:50.106Z,8.10
2019-02-14T03:50:19.586Z,8.40
2019-02-14T03:52:49.026Z,9.03
2019-02-14T03:55:22.003Z,8.20
2019-02-14T03:57:51.764Z,8.30
2019-02-14T04:00:21.228Z,8.07
2019-02-14T04:02:50.688Z,9.27
2019-02-14T04:05:20.147Z,7.53
2019-02-14T04:07:49.601Z,8.57
2019-02-14T04:10:19.425Z,8.33
2019-02-14T04:12:48.878Z,9.53
2019-02-14T04:15:18.801Z,9.53
2019-02-14T04:17:48.530Z,9.27
2019-02-14T04:20:18.009Z,8.50
2019-02-14T04:22:47.478Z,9.10
2019-02-14T04:25:17.264Z,8.33
2019-02-14T04:27:47.069Z,8.37
2019-02-14T04:30:16.592Z,9.13
2019-02-14T04:32:46.045Z,8.80
2019-02-14T04:35:15.527Z,7.97
2019-02-14T04:37:44.985Z,8.90
2019-02-14T04:40:14.459Z,9.70
2019-02-14T04:42:43.948Z,9.70
2019-02-14T04:45:13.789Z,8.93
2019-02-14T04:47:43.610Z,8.13
2019-02-14T04:50:13.070Z,7.83
2019-02-14T04:52:42.528Z,8.10
2019-02-14T04:55:12.266Z,7.37
2019-02-14T04:57:41.712Z,7.80
2019-02-14T05:00:15.682Z,8.60
2019-02-14T05:02:45.138Z,9.30
2019-02-14T05:05:14.876Z,8.37
2019-02-14T05:07:44.352Z,8.10
2019-02-14T05:10:13.964Z,8.17
2019-02-14T05:12:43.423Z,7.30
2019-02-14T05:15:13.130Z,7.60
2019-02-14T05:17:47.071Z,7.43
2019-02-14T05:20:16.525Z,7.40
2019-02-14T05:22:46.014Z,6.90
2019-02-14T05:25:15.466Z,6.47
2019-02-14T05:27:44.980Z,6.93
2019-02-14T05:30:16.370Z,6.60
2019-02-14T05:32:45.861Z,7.77
2019-02-14T05:35:15.696Z,7.40
2019-02-14T05:37:45.426Z,7.13
2019-02-14T05:40:14.909Z,6.43
2019-02-14T05:42:44.392Z,5.40
2019-02-14T05:45:14.417Z,6.10
2019-02-14T05:47:43.878Z,6.37
2019-02-14T05:50:14.749Z,6.40
2019-02-14T05:52:44.603Z,5.70
2019-02-14T05:55:14.051Z,5.70
2019-02-14T05:57:43.544Z,5.17
2019-02-14T06:00:17.683Z,6.63
2019-02-14T06:02:49.308Z,5.63
2019-02-14T06:05:19.307Z,5.53
2019-02-14T06:07:48.856Z,4.87
2019-02-14T06:10:18.745Z,5.53
2019-02-14T06:12:48.541Z,5.20
2019-02-14T06:15:17.990Z,5.37
2019-02-14T06:17:47.447Z,5.33
2019-02-14T06:20:17.262Z,5.03
2019-02-14T06:22:46.729Z,5.40
2019-02-14T06:25:16.173Z,5.33
2019-02-14T06:27:45.625Z,5.50
2019-02-14T06:30:15.922Z,5.90
2019-02-14T06:32:45.390Z,5.30
2019-02-14T06:35:15.133Z,5.20
2019-02-14T06:37:44.610Z,5.50
2019-02-14T06:40:14.437Z,5.60
2019-02-14T06:42:43.924Z,6.43
2019-02-14T06:45:15.562Z,5.67
2019-02-14T06:47:45.186Z,6.17
2019-02-14T06:50:14.651Z,6.60
2019-02-14T06:52:44.119Z,6.40
2019-02-14T06:55:13.856Z,6.30
2019-02-14T06:57:43.338Z,6.80
2019-02-14T07:00:17.423Z,6.73
2019-02-14T07:02:47.486Z,5.93
2019-02-14T07:05:17.030Z,5.70
2019-02-14T07:07:46.466Z,5.37
2019-02-14T07:10:15.915Z,5.50
2019-02-14T07:12:45.367Z,5.33
2019-02-14T07:15:15.213Z,5.33
2019-02-14T07:17:44.673Z,6.00
2019-02-14T07:20:18.725Z,5.63
2019-02-14T07:22:48.189Z,5.23
2019-02-14T07:25:17.651Z,5.43
2019-02-14T07:27:47.122Z,5.67
2019-02-14T07:30:21.347Z,5.17
2019-02-14T07:32:50.845Z,5.50
2019-02-14T07:35:20.296Z,5.23
2019-02-14T07:37:50.019Z,5.13
2019-02-14T07:40:19.766Z,5.37
2019-02-14T07:42:49.230Z,5.50
2019-02-14T07:45:19.429Z,5.80
2019-02-14T07:47:48.874Z,4.67
2019-02-14T07:50:18.332Z,4.93
2019-02-14T07:52:48.059Z,5.80
2019-02-14T07:55:18.188Z,5.50
2019-02-14T07:57:47.689Z,5.03
2019-02-14T08:00:20.755Z,5.23
2019-02-14T08:02:50.232Z,4.70
2019-02-14T08:05:19.675Z,4.70
2019-02-14T08:07:49.122Z,4.90
2019-02-14T08:10:19.492Z,5.67
2019-02-14T08:12:48.936Z,5.07
2019-02-14T08:15:18.425Z,5.27
2019-02-14T08:17:48.210Z,5.93
2019-02-14T08:20:19.283Z,5.60
2019-02-14T08:22:48.725Z,5.70
2019-02-14T08:25:18.196Z,5.03
2019-02-14T08:27:47.685Z,5.40
2019-02-14T08:30:18.704Z,6.17
2019-02-14T08:32:48.147Z,5.10
2019-02-14T08:35:17.644Z,5.33
2019-02-14T08:37:47.067Z,5.63
2019-02-14T08:40:28.611Z,5.27
2019-02-14T08:42:58.845Z,5.67
2019-02-14T08:45:28.384Z,6.70
2019-02-14T08:47:57.887Z,6.20
2019-02-14T08:50:27.627Z,5.93
2019-02-14T08:52:57.088Z,5.70
2019-02-14T08:55:26.557Z,5.60
2019-02-14T08:57:56.117Z,6.17
2019-02-14T09:00:25.585Z,5.93
2019-02-14T09:02:55.040Z,5.80
2019-02-14T09:05:25.015Z,5.90
2019-02-14T09:07:55.172Z,6.30
2019-02-14T09:10:24.713Z,6.27
2019-02-14T09:12:54.331Z,6.37
2019-02-14T09:15:23.765Z,5.93
2019-02-14T09:17:53.229Z,6.63
2019-02-14T09:20:22.722Z,6.63
2019-02-14T09:22:52.187Z,5.90
2019-02-14T09:25:21.720Z,6.70
2019-02-14T09:27:51.173Z,5.83
2019-02-14T09:30:20.826Z,6.40
2019-02-14T09:32:50.601Z,5.77
2019-02-14T09:35:20.073Z,6.00
2019-02-14T09:37:49.529Z,6.40
2019-02-14T09:40:19.181Z,5.57
2019-02-14T09:42:48.649Z,6.17
2019-02-14T09:45:18.384Z,6.60
2019-02-14T09:47:48.345Z,6.90
2019-02-14T09:50:18.069Z,7.57
2019-02-14T09:52:47.618Z,7.47
2019-02-14T09:55:17.073Z,7.17
2019-02-14T09:57:46.543Z,6.77
2019-02-14T10:00:17.344Z,7.07
2019-02-14T10:02:46.827Z,6.97
2019-02-14T10:05:16.529Z,7.13
2019-02-14T10:07:46.035Z,6.77
2019-02-14T10:10:18.627Z,7.60
2019-02-14T10:12:48.435Z,7.70
2019-02-14T10:15:18.250Z,7.53
2019-02-14T10:17:47.720Z,7.90
2019-02-14T10:20:17.914Z,7.37
2019-02-14T10:22:47.385Z,7.93
2019-02-14T10:25:17.130Z,8.27
2019-02-14T10:27:46.598Z,8.17
2019-02-14T10:30:20.523Z,8.10
2019-02-14T10:32:50.267Z,8.17
2019-02-14T10:35:19.720Z,7.90
2019-02-14T10:37:49.197Z,8.20
2019-02-14T10:40:18.653Z,8.23
2019-02-14T10:42:48.138Z,7.83
2019-02-14T10:45:22.244Z,7.93
2019-02-14T10:47:51.729Z,8.20
2019-02-14T10:50:21.468Z,8.87
2019-02-14T10:52:50.976Z,8.57
2019-02-14T10:55:20.436Z,8.10
2019-02-14T10:57:49.926Z,9.30
2019-02-14T11:00:25.117Z,8.93
2019-02-14T11:02:54.639Z,8.47
2019-02-14T11:05:24.274Z,8.33
2019-02-14T11:07:53.740Z,9.00
2019-02-14T11:10:23.203Z,9.07
2019-02-14T11:12:52.689Z,9.00
2019-02-14T11:15:23.888Z,9.27
2019-02-14T11:17:53.378Z,8.13
2019-02-14T11:20:22.852Z,7.20
2019-02-14T11:22:52.492Z,7.43
2019-02-14T11:25:25.491Z,8.00
2019-02-14T11:27:54.971Z,7.23
2019-02-14T11:30:24.703Z,7.07
2019-02-14T11:32:54.181Z,7.47
2019-02-14T11:35:23.648Z,7.23
2019-02-14T11:37:53.439Z,7.37
2019-02-14T11:40:22.900Z,7.67
2019-02-14T11:42:52.627Z,7.40
2019-02-14T11:45:28.938Z,7.83
2019-02-14T11:47:58.727Z,7.80
2019-02-14T11:50:28.188Z,7.60
2019-02-14T11:52:57.668Z,7.00
2019-02-14T11:55:27.126Z,8.43
2019-02-14T11:57:56.594Z,7.50
2019-02-14T12:00:27.458Z,7.23
2019-02-14T12:02:56.935Z,6.63
2019-02-14T12:05:26.428Z,6.40
2019-02-14T12:07:55.888Z,7.23
2019-02-14T12:10:25.375Z,6.37
2019-02-14T12:12:54.894Z,6.60
2019-02-14T12:15:24.349Z,6.90
2019-02-14T12:17:53.816Z,6.23
2019-02-14T12:20:23.270Z,7.13
2019-02-14T12:22:52.752Z,6.70
2019-02-14T12:25:27.807Z,6.57
2019-02-14T12:27:57.305Z,6.67
2019-02-14T12:30:26.774Z,6.63
2019-02-14T12:32:56.241Z,6.50
2019-02-14T12:35:25.711Z,7.00
2019-02-14T12:37:55.515Z,7.37
2019-02-14T12:40:24.971Z,7.03
2019-02-14T12:42:54.461Z,7.33
2019-02-14T12:45:26.220Z,7.03
2019-02-14T12:47:55.810Z,7.13
2019-02-14T12:50:25.287Z,7.10
2019-02-14T12:52:54.762Z,7.57
2019-02-14T12:55:24.223Z,7.60
2019-02-14T12:57:54.014Z,7.17
2019-02-14T13:00:24.549Z,6.87
2019-02-14T13:02:54.015Z,6.90
2019-02-14T13:05:23.471Z,6.77
2019-02-14T13:07:52.966Z,6.80
2019-02-14T13:10:22.880Z,6.77
2019-02-14T13:12:52.693Z,6.50
2019-02-14T13:15:27.019Z,6.30
2019-02-14T13:17:56.481Z,6.90
2019-02-14T13:20:26.238Z,6.47
2019-02-14T13:22:56.067Z,5.87
2019-02-14T13:25:25.538Z,6.43
2019-02-14T13:27:55.169Z,6.57
2019-02-14T13:30:26.989Z,6.37
2019-02-14T13:32:56.743Z,5.43
2019-02-14T13:35:26.539Z,5.43
2019-02-14T13:37:55.995Z,6.27
2019-02-14T13:40:25.459Z,5.40
2019-02-14T13:42:55.265Z,5.90
2019-02-14T13:45:25.012Z,5.70
2019-02-14T13:47:54.483Z,5.63
2019-02-14T13:50:24.035Z,5.83
2019-02-14T13:52:53.500Z,5.50
2019-02-14T13:55:23.070Z,5.03
2019-02-14T13:57:52.527Z,4.83
2019-02-14T14:00:25.803Z,4.80
2019-02-14T14:02:55.298Z,5.23
2019-02-14T14:05:24.788Z,5.43
2019-02-14T14:07:54.258Z,4.90
2019-02-14T14:10:24.117Z,4.83
2019-02-14T14:12:53.856Z,5.07
2019-02-14T14:15:23.499Z,4.80
2019-02-14T14:17:53.264Z,4.40
2019-02-14T14:20:22.733Z,4.57
2019-02-14T14:22:52.190Z,4.73
2019-02-14T14:25:21.672Z,4.80
2019-02-14T14:27:51.127Z,5.00
2019-02-14T14:30:20.600Z,4.70
2019-02-14T14:32:50.058Z,5.13
2019-02-14T14:35:19.528Z,4.60
2019-02-14T14:37:48.986Z,5.20
2019-02-14T14:40:20.376Z,4.90
2019-02-14T14:42:51.670Z,4.70
2019-02-14T14:45:23.067Z,4.87
2019-02-14T14:47:52.525Z,4.20
2019-02-14T14:50:21.988Z,4.27
2019-02-14T14:52:51.443Z,4.37
2019-02-14T14:55:20.912Z,4.80
2019-02-14T14:57:50.679Z,4.23
2019-02-14T15:00:20.191Z,4.30
2019-02-14T15:02:49.649Z,3.53
2019-02-14T15:05:19.142Z,4.03
2019-02-14T15:07:48.598Z,4.10
2019-02-14T15:10:18.055Z,4.13
2019-02-14T15:12:47.516Z,4.23
2019-02-14T15:15:16.993Z,3.80
2019-02-14T15:17:46.849Z,3.73
2019-02-14T15:20:16.333Z,4.40
2019-02-14T15:22:46.150Z,3.93
2019-02-14T15:25:15.630Z,4.57
2019-02-14T15:27:45.091Z,4.13
2019-02-14T15:30:14.825Z,4.30
2019-02-14T15:32:44.273Z,3.47
2019-02-14T15:35:13.747Z,3.33
2019-02-14T15:37:44.543Z,4.97
2019-02-14T15:40:14.389Z,4.53
2019-02-14T15:42:43.857Z,4.13
2019-02-14T15:45:13.312Z,5.00
2019-02-14T15:47:42.787Z,5.03
2019-02-14T15:50:12.251Z,4.50
2019-02-14T15:52:41.720Z,4.87
2019-02-14T15:55:11.181Z,4.73
2019-02-14T15:57:42.886Z,5.50
2019-02-14T16:00:13.307Z,5.30
2019-02-14T16:02:42.777Z,5.03
2019-02-14T16:05:12.246Z,5.33
2019-02-14T16:07:41.756Z,5.70
2019-02-14T16:10:18.118Z,5.20
2019-02-14T16:12:43.970Z,5.10
2019-02-14T16:15:13.565Z,5.10
2019-02-14T16:17:43.270Z,6.43
2019-02-14T16:20:12.903Z,5.60
2019-02-14T16:22:44.079Z,5.57
2019-02-14T16:25:13.605Z,5.73
2019-02-14T16:27:43.101Z,5.37
2019-02-14T16:30:12.583Z,6.07
2019-02-14T16:32:42.048Z,6.20
2019-02-14T16:35:11.586Z,6.00
2019-02-14T16:37:41.081Z,6.23
2019-02-14T16:40:10.587Z,6.87
2019-02-14T16:42:40.604Z,8.80
2019-02-14T16:45:11.650Z,8.87
2019-02-14T16:47:42.286Z,7.97
2019-02-14T16:50:11.749Z,7.63
2019-02-14T16:54:52.984Z,9.10
2019-02-14T16:57:22.744Z,6.73
2019-02-14T16:59:52.597Z,8.23
2019-02-14T17:02:22.088Z,9.90
2019-02-14T17:04:51.915Z,7.57
2019-02-14T17:07:21.408Z,6.37
2019-02-14T17:09:50.890Z,8.03
2019-02-14T17:12:20.376Z,8.07
2019-02-14T17:14:50.659Z,7.30
2019-02-14T17:17:27.686Z,7.10
2019-02-14T17:19:51.439Z,7.00
2019-02-14T17:22:21.921Z,6.80
2019-02-14T17:24:51.514Z,7.40
2019-02-14T17:27:20.973Z,7.03
2019-02-14T17:29:50.773Z,7.07
2019-02-14T17:32:20.257Z,7.00
2019-02-14T17:34:50.487Z,7.13
2019-02-14T17:37:19.956Z,6.80
2019-02-14T17:39:49.828Z,6.80
2019-02-14T17:42:19.618Z,8.83
2019-02-14T17:44:49.105Z,6.80
2019-02-14T17:47:18.576Z,8.03
2019-02-14T17:49:48.340Z,9.80
2019-02-14T17:52:17.819Z,12.57
2019-02-14T17:54:47.691Z,9.60
2019-02-14T17:57:17.169Z,7.80
2019-02-14T17:59:46.670Z,15.77
2019-02-14T18:02:17.908Z,36.23
2019-02-14T18:04:47.519Z,14.50
2019-02-14T18:07:16.984Z,8.23
2019-02-14T18:09:46.485Z,9.27
2019-02-14T18:12:16.387Z,8.47
2019-02-14T18:14:46.216Z,8.10
2019-02-14T18:17:15.690Z,7.90
2019-02-14T18:19:45.175Z,8.00
2019-02-14T18:22:14.726Z,7.23
2019-02-14T18:24:44.214Z,8.80
2019-02-14T18:27:13.699Z,8.23
2019-02-14T18:29:43.180Z,8.53
2019-02-14T18:32:12.915Z,8.90
2019-02-14T18:34:42.420Z,9.57
2019-02-14T18:37:12.235Z,9.33
2019-02-14T18:39:41.718Z,9.40
2019-02-14T18:42:11.189Z,10.17
2019-02-14T18:44:40.957Z,10.40
2019-02-14T18:47:10.426Z,10.33
2019-02-14T18:49:39.919Z,10.43
2019-02-14T18:52:09.390Z,8.80
2019-02-14T18:54:38.877Z,9.63
2019-02-14T18:57:08.744Z,10.80
2019-02-14T18:59:38.225Z,9.20
2019-02-14T19:02:07.986Z,8.53
2019-02-14T19:04:37.458Z,9.23
2019-02-14T19:09:27.714Z,9.23
2019-02-14T19:11:57.198Z,8.37
2019-02-14T19:14:26.672Z,7.97
2019-02-14T19:16:56.139Z,8.03
2019-02-14T19:19:25.621Z,8.30
2019-02-14T19:21:55.094Z,8.30
2019-02-14T19:24:24.599Z,9.13
2019-02-14T19:26:54.060Z,9.13
2019-02-14T19:29:24.072Z,8.10
2019-02-14T19:31:53.779Z,7.80
2019-02-14T19:34:23.265Z,8.50
2019-02-14T19:36:52.752Z,9.23
2019-02-14T19:39:22.236Z,8.73
2019-02-14T19:41:51.726Z,8.80
2019-02-14T19:44:21.525Z,9.27
2019-02-14T19:46:51.026Z,8.50
2019-02-14T19:49:20.499Z,8.30
2019-02-14T19:51:50.015Z,9.00
2019-02-14T19:54:19.444Z,8.17
2019-02-14T19:56:49.267Z,8.70
2019-02-14T19:59:18.746Z,9.27
2019-02-14T20:01:48.215Z,8.70
2019-02-14T20:04:18.091Z,8.57
2019-02-14T20:06:47.946Z,8.90
2019-02-14T20:09:17.398Z,8.57
2019-02-14T20:11:46.881Z,10.07
2019-02-14T20:14:16.395Z,8.93
2019-02-14T20:16:45.873Z,8.87
2019-02-14T20:19:15.338Z,9.30
2019-02-14T20:21:44.815Z,8.50
2019-02-14T20:24:14.299Z,8.60
2019-02-14T20:26:43.768Z,10.53
2019-02-14T20:29:13.274Z,9.77
2019-02-14T20:31:42.909Z,8.77
2019-02-14T20:34:12.465Z,8.77
2019-02-14T20:36:41.912Z,10.40
2019-02-14T20:39:11.405Z,10.67
2019-02-14T20:41:46.047Z,8.70
2019-02-14T20:44:12.073Z,9.53
2019-02-14T20:46:41.548Z,8.60
2019-02-14T20:49:11.026Z,9.67
2019-02-14T20:51:40.517Z,8.60
2019-02-14T20:54:09.988Z,9.37
2019-02-14T20:56:39.476Z,8.73
2019-02-14T20:59:08.964Z,8.40
2019-02-14T21:01:38.526Z,9.97
2019-02-14T21:04:07.998Z,9.90
2019-02-14T21:06:37.486Z,8.50
2019-02-14T21:09:06.972Z,8.80
2019-02-14T21:11:36.439Z,7.90
2019-02-14T21:14:06.233Z,8.90
2019-02-14T21:16:36.010Z,8.37
2019-02-14T21:19:05.498Z,9.17
2019-02-14T21:21:35.385Z,8.70
2019-02-14T21:24:04.823Z,11.80
2019-02-14T21:26:34.291Z,10.47
2019-02-14T21:29:03.769Z,9.83
2019-02-14T21:31:33.290Z,10.73
2019-02-14T21:34:02.841Z,8.70
2019-02-14T21:36:32.581Z,8.70
2019-02-14T21:39:02.058Z,8.30
2019-02-14T21:41:31.523Z,11.17
2019-02-14T21:44:01.027Z,8.93
2019-02-14T21:46:30.528Z,12.17
2019-02-14T21:48:59.985Z,9.30
2019-02-14T21:51:29.651Z,9.47
2019-02-14T21:53:59.161Z,10.20
2019-02-14T21:56:28.636Z,11.00
2019-02-14T21:58:58.103Z,9.27
2019-02-14T22:01:27.760Z,9.90
2019-02-14T22:03:57.565Z,10.70
2019-02-14T22:06:27.050Z,11.30
2019-02-14T22:08:56.562Z,10.43
2019-02-14T22:11:26.041Z,11.10
2019-02-14T22:13:55.551Z,10.67
2019-02-14T22:16:25.069Z,10.50
2019-02-14T22:18:54.546Z,10.90
2019-02-14T22:21:24.041Z,10.87
2019-02-14T22:23:53.532Z,9.80
2019-02-14T22:26:23.001Z,10.57
2019-02-14T22:28:52.823Z,10.03
2019-02-14T22:31:22.635Z,10.83
2019-02-14T22:33:52.105Z,10.70
2019-02-14T22:36:21.595Z,11.37
2019-02-14T22:38:51.074Z,10.60
2019-02-14T22:41:20.579Z,11.07
2019-02-14T22:43:50.364Z,11.03
2019-02-14T22:46:20.179Z,11.13
2019-02-14T22:48:50.001Z,11.00
2019-02-14T22:51:19.504Z,10.73
2019-02-14T22:53:48.998Z,10.80
2019-02-14T22:56:18.487Z,10.23
2019-02-14T22:58:47.966Z,11.17
2019-02-14T23:01:17.462Z,10.17
2019-02-14T23:03:47.230Z,9.90
2019-02-14T23:06:17.044Z,11.00
2019-02-14T23:08:46.517Z,11.13
2019-02-14T23:11:16.022Z,10.67
2019-02-14T23:13:45.520Z,11.57
2019-02-14T23:16:15.005Z,11.43
2019-02-14T23:18:44.483Z,11.07
2019-02-14T23:21:13.957Z,12.23
2019-02-14T23:23:43.443Z,11.57
2019-02-14T23:26:13.172Z,11.27
2019-02-14T23:28:42.821Z,12.00
2019-02-14T23:31:12.291Z,12.93
2019-02-14T23:33:41.791Z,12.37
2019-02-14T23:36:11.539Z,13.73
2019-02-14T23:38:41.012Z,14.03
2019-02-14T23:41:10.572Z,13.00
2019-02-14T23:43:40.307Z,12.30
2019-02-14T23:46:10.084Z,13.50
2019-02-14T23:48:39.573Z,12.73
2019-02-14T23:51:09.047Z,12.60
2019-02-14T23:53:38.836Z,13.57
2019-02-14T23:56:08.306Z,12.70
2019-02-14T23:58:37.796Z,13.53
